createdAt,value
2023-05-11T00:00:51.190Z,92.77
2023-05-11T00:01:51.275Z,92.72
2023-05-11T00:02:51.514Z,92.72
2023-05-11T00:03:51.695Z,92.68
2023-05-11T00:04:51.702Z,92.70
2023-05-11T00:05:51.819Z,92.73
2023-05-11T00:06:51.957Z,92.72
2023-05-11T00:07:52.143Z,92.71
2023-05-11T00:08:52.247Z,92.73
2023-05-11T00:09:52.352Z,92.72
2023-05-11T00:10:52.484Z,92.73
2023-05-11T00:11:52.635Z,92.75
2023-05-11T00:12:52.783Z,92.76
2023-05-11T00:13:52.896Z,92.79
2023-05-11T00:14:53.028Z,92.78
2023-05-11T00:15:53.169Z,92.76
2023-05-11T00:16:53.303Z,92.79
2023-05-11T00:17:53.561Z,92.79
2023-05-11T00:18:53.579Z,92.78
2023-05-11T00:19:53.675Z,92.74
2023-05-11T00:20:53.814Z,92.77
2023-05-11T00:21:53.971Z,92.79
2023-05-11T00:22:54.065Z,92.80
2023-05-11T00:23:54.222Z,92.83
2023-05-11T00:24:54.318Z,92.79
2023-05-11T00:25:54.452Z,92.86
2023-05-11T00:26:54.585Z,92.89
2023-05-11T00:27:54.752Z,92.79
2023-05-11T00:28:54.863Z,92.82
2023-05-11T00:29:55.083Z,92.81
2023-05-11T00:30:55.116Z,92.84
2023-05-11T00:31:55.248Z,92.79
2023-05-11T00:32:55.452Z,92.78
2023-05-11T00:33:55.509Z,92.75
2023-05-11T00:34:55.609Z,92.78
2023-05-11T00:35:55.756Z,92.81
2023-05-11T00:36:55.874Z,92.81
2023-05-11T00:37:56.012Z,92.78
2023-05-11T00:38:56.191Z,92.78
2023-05-11T00:39:56.281Z,92.75
2023-05-11T00:40:56.434Z,92.79
2023-05-11T00:41:56.535Z,92.79
2023-05-11T00:42:56.650Z,92.81
2023-05-11T00:43:56.790Z,92.71
2023-05-11T00:44:56.953Z,92.68
2023-05-11T00:45:57.093Z,92.77
2023-05-11T00:46:57.247Z,92.84
2023-05-11T00:47:57.354Z,92.90
2023-05-11T00:48:57.410Z,92.73
2023-05-11T00:49:57.686Z,92.73
2023-05-11T00:50:57.689Z,92.73
2023-05-11T00:51:57.840Z,92.83
2023-05-11T00:52:57.925Z,92.83
2023-05-11T00:53:58.083Z,92.68
2023-05-11T00:54:58.165Z,92.69
2023-05-11T00:55:58.299Z,92.62
2023-05-11T00:56:58.436Z,92.52
2023-05-11T00:57:58.619Z,92.62
2023-05-11T00:58:58.712Z,92.65
2023-05-11T00:59:58.906Z,92.62
2023-05-11T01:00:59.018Z,92.62
2023-05-11T01:01:59.148Z,92.62
2023-05-11T01:02:59.266Z,92.55
2023-05-11T01:03:59.374Z,92.58
2023-05-11T01:04:59.570Z,92.53
2023-05-11T01:05:59.663Z,92.57
2023-05-11T01:06:59.758Z,92.63
2023-05-11T01:07:59.915Z,92.62
2023-05-11T01:09:00.025Z,92.61
2023-05-11T01:10:00.286Z,92.64
2023-05-11T01:11:00.340Z,92.66
2023-05-11T01:12:00.464Z,92.64
2023-05-11T01:13:00.549Z,92.60
2023-05-11T01:14:00.707Z,92.64
2023-05-11T01:15:00.839Z,92.66
2023-05-11T01:16:00.958Z,92.61
2023-05-11T01:17:01.265Z,92.63
2023-05-11T01:18:01.283Z,92.70
2023-05-11T01:19:01.370Z,92.68
2023-05-11T01:20:01.531Z,92.68
2023-05-11T01:21:01.603Z,92.70
2023-05-11T01:22:01.734Z,92.68
2023-05-11T01:23:01.875Z,92.70
2023-05-11T01:24:02.076Z,92.71
2023-05-11T01:25:02.183Z,92.73
2023-05-11T01:26:02.267Z,92.78
2023-05-11T01:27:02.486Z,92.80
2023-05-11T01:28:02.535Z,92.75
2023-05-11T01:29:02.687Z,92.73
2023-05-11T01:30:02.872Z,92.80
2023-05-11T01:31:02.951Z,92.82
2023-05-11T01:32:03.164Z,92.81
2023-05-11T01:33:03.342Z,92.74
2023-05-11T01:34:03.365Z,92.79
2023-05-11T01:35:03.467Z,92.83
2023-05-11T01:36:03.602Z,92.89
2023-05-11T01:37:03.810Z,92.94
2023-05-11T01:38:03.906Z,92.96
2023-05-11T01:39:03.982Z,92.95
2023-05-11T01:40:04.113Z,92.96
2023-05-11T01:41:04.252Z,93.02
2023-05-11T01:42:04.440Z,93.04
2023-05-11T01:43:04.542Z,93.07
2023-05-11T01:44:04.636Z,93.10
2023-05-11T01:45:04.771Z,93.10
2023-05-11T01:46:04.971Z,93.11
2023-05-11T01:47:05.015Z,93.13
2023-05-11T01:48:05.267Z,93.19
2023-05-11T01:49:05.281Z,93.22
2023-05-11T01:50:05.440Z,93.22
2023-05-11T01:51:05.602Z,93.19
2023-05-11T01:52:05.715Z,93.16
2023-05-11T01:53:05.813Z,93.18
2023-05-11T01:54:05.937Z,93.25
2023-05-11T01:55:06.058Z,93.29
2023-05-11T01:56:06.245Z,93.12
2023-05-11T01:57:06.339Z,93.20
2023-05-11T01:58:06.442Z,93.26
2023-05-11T01:59:06.570Z,93.23
2023-05-11T02:00:06.738Z,93.19
2023-05-11T02:01:06.920Z,93.19
2023-05-11T02:02:07.016Z,93.17
2023-05-11T02:03:07.180Z,93.26
2023-05-11T02:04:07.263Z,93.25
2023-05-11T02:05:07.364Z,93.25
2023-05-11T02:06:07.497Z,93.30
2023-05-11T02:07:07.624Z,93.35
2023-05-11T02:08:07.759Z,93.22
2023-05-11T02:09:08.081Z,93.24
2023-05-11T02:10:08.032Z,93.25
2023-05-11T02:11:08.195Z,93.27
2023-05-11T02:12:08.350Z,93.28
2023-05-11T02:13:08.384Z,93.26
2023-05-11T02:14:08.575Z,93.26
2023-05-11T02:15:08.658Z,93.25
2023-05-11T02:16:08.872Z,93.27
2023-05-11T02:17:08.932Z,93.26
2023-05-11T02:18:09.247Z,93.28
2023-05-11T02:19:09.399Z,93.32
2023-05-11T02:20:09.304Z,93.30
2023-05-11T02:21:09.445Z,93.30
2023-05-11T02:22:09.600Z,93.28
2023-05-11T02:23:09.710Z,93.31
2023-05-11T02:24:09.857Z,93.30
2023-05-11T02:25:09.969Z,93.30
2023-05-11T02:26:10.144Z,93.36
2023-05-11T02:27:10.282Z,93.34
2023-05-11T02:28:10.388Z,93.28
2023-05-11T02:29:10.538Z,93.26
2023-05-11T02:30:10.782Z,93.29
2023-05-11T02:31:10.819Z,93.32
2023-05-11T02:32:10.929Z,93.28
2023-05-11T02:33:11.051Z,93.17
2023-05-11T02:34:11.172Z,93.18
2023-05-11T02:35:11.348Z,93.22
2023-05-11T02:36:11.453Z,93.15
2023-05-11T02:37:11.592Z,93.26
2023-05-11T02:38:11.708Z,93.13
2023-05-11T02:39:11.851Z,93.10
2023-05-11T02:40:12.029Z,93.09
2023-05-11T02:41:12.136Z,93.04
2023-05-11T02:42:12.271Z,93.07
2023-05-11T02:43:12.410Z,93.04
2023-05-11T02:44:12.544Z,93.15
2023-05-11T02:45:12.699Z,93.16
2023-05-11T02:46:12.859Z,93.15
2023-05-11T02:47:12.909Z,93.13
2023-05-11T02:48:13.040Z,93.14
2023-05-11T02:49:13.145Z,93.15
2023-05-11T02:50:13.358Z,93.10
2023-05-11T02:51:13.412Z,93.10
2023-05-11T02:52:13.550Z,93.12
2023-05-11T02:53:13.722Z,93.16
2023-05-11T02:54:13.833Z,93.14
2023-05-11T02:55:13.978Z,93.20
2023-05-11T02:56:14.104Z,93.20
2023-05-11T02:57:14.213Z,93.14
2023-05-11T02:58:14.398Z,93.15
2023-05-11T02:59:14.459Z,93.17
2023-05-11T03:00:14.638Z,93.16
2023-05-11T03:01:14.832Z,93.15
2023-05-11T03:02:14.935Z,93.14
2023-05-11T03:03:15.049Z,93.12
2023-05-11T03:04:15.179Z,93.10
2023-05-11T03:05:15.264Z,93.13
2023-05-11T03:06:15.409Z,93.11
2023-05-11T03:07:15.497Z,93.14
2023-05-11T03:08:15.669Z,93.04
2023-05-11T03:09:15.759Z,93.05
2023-05-11T03:10:16.178Z,93.08
2023-05-11T03:11:16.108Z,93.14
2023-05-11T03:12:16.173Z,93.10
2023-05-11T03:13:16.296Z,93.14
2023-05-11T03:14:16.430Z,93.19
2023-05-11T03:15:16.585Z,93.25
2023-05-11T03:16:18.980Z,93.32
2023-05-11T03:17:16.844Z,93.36
2023-05-11T03:18:17.007Z,93.36
2023-05-11T03:19:17.101Z,93.32
2023-05-11T03:20:17.599Z,93.30
2023-05-11T03:21:17.300Z,93.29
2023-05-11T03:22:17.495Z,93.28
2023-05-11T03:23:17.589Z,93.30
2023-05-11T03:24:17.706Z,93.27
2023-05-11T03:25:17.877Z,93.26
2023-05-11T03:26:17.978Z,93.28
2023-05-11T03:27:18.120Z,93.26
2023-05-11T03:28:18.280Z,93.36
2023-05-11T03:29:18.393Z,93.36
2023-05-11T03:30:18.863Z,93.34
2023-05-11T03:31:18.638Z,93.29
2023-05-11T03:32:18.836Z,93.25
2023-05-11T03:33:18.893Z,93.22
2023-05-11T03:34:18.999Z,93.24
2023-05-11T03:35:19.138Z,93.27
2023-05-11T03:36:19.225Z,93.30
2023-05-11T03:37:19.495Z,93.30
2023-05-11T03:38:19.443Z,93.35
2023-05-11T03:39:19.547Z,93.35
2023-05-11T03:40:19.880Z,93.32
2023-05-11T03:41:19.780Z,93.34
2023-05-11T03:42:19.892Z,93.33
2023-05-11T03:43:20.019Z,93.33
2023-05-11T03:44:20.115Z,93.33
2023-05-11T03:45:20.230Z,93.40
2023-05-11T03:46:20.389Z,93.40
2023-05-11T03:47:20.537Z,93.49
2023-05-11T03:48:20.596Z,93.52
2023-05-11T03:49:20.742Z,93.52
2023-05-11T03:50:20.809Z,93.55
2023-05-11T03:51:20.914Z,93.55
2023-05-11T03:52:21.150Z,93.58
2023-05-11T03:53:21.192Z,93.60
2023-05-11T03:54:21.267Z,93.59
2023-05-11T03:55:21.351Z,93.64
2023-05-11T03:56:21.581Z,93.64
2023-05-11T03:57:21.626Z,93.69
2023-05-11T03:58:21.700Z,93.67
2023-05-11T03:59:21.809Z,93.65
2023-05-11T04:00:21.949Z,93.64
2023-05-11T04:01:22.026Z,93.68
2023-05-11T04:02:22.221Z,93.69
2023-05-11T04:03:22.443Z,93.66
2023-05-11T04:04:22.389Z,93.65
2023-05-11T04:05:22.521Z,93.63
2023-05-11T04:06:22.662Z,93.64
2023-05-11T04:07:22.804Z,93.73
2023-05-11T04:08:22.823Z,93.76
2023-05-11T04:09:22.952Z,93.77
2023-05-11T04:10:23.045Z,93.80
2023-05-11T04:11:23.236Z,93.81
2023-05-11T04:12:23.417Z,93.80
2023-05-11T04:13:23.461Z,93.81
2023-05-11T04:14:23.765Z,93.88
2023-05-11T04:15:23.780Z,93.91
2023-05-11T04:16:23.882Z,93.89
2023-05-11T04:17:24.087Z,93.88
2023-05-11T04:18:24.179Z,93.86
2023-05-11T04:19:24.305Z,93.79
2023-05-11T04:20:24.394Z,93.79
2023-05-11T04:21:24.542Z,93.81
2023-05-11T04:22:24.739Z,93.76
2023-05-11T04:23:24.868Z,93.74
2023-05-11T04:24:24.963Z,93.72
2023-05-11T04:25:25.095Z,93.75
2023-05-11T04:26:25.215Z,93.81
2023-05-11T04:27:25.388Z,93.83
2023-05-11T04:28:25.477Z,93.86
2023-05-11T04:29:25.689Z,93.80
2023-05-11T04:30:25.807Z,93.69
2023-05-11T04:31:25.902Z,93.57
2023-05-11T04:32:26.111Z,93.60
2023-05-11T04:33:26.141Z,93.61
2023-05-11T04:34:26.313Z,93.64
2023-05-11T04:35:26.424Z,93.59
2023-05-11T04:36:26.592Z,93.56
2023-05-11T04:37:26.667Z,93.51
2023-05-11T04:38:26.809Z,93.56
2023-05-11T04:39:26.965Z,93.59
2023-05-11T04:40:27.085Z,93.60
2023-05-11T04:41:27.275Z,93.58
2023-05-11T04:42:27.350Z,93.60
2023-05-11T04:43:27.497Z,93.58
2023-05-11T04:44:27.680Z,93.58
2023-05-11T04:45:27.779Z,93.57
2023-05-11T04:46:27.958Z,93.52
2023-05-11T04:47:28.049Z,93.57
2023-05-11T04:48:28.156Z,93.60
2023-05-11T04:49:28.303Z,93.60
2023-05-11T04:50:28.476Z,93.41
2023-05-11T04:51:28.565Z,93.45
2023-05-11T04:52:28.683Z,93.45
2023-05-11T04:53:28.822Z,93.45
2023-05-11T04:54:28.892Z,93.42
2023-05-11T04:55:29.033Z,93.43
2023-05-11T04:56:29.226Z,93.40
2023-05-11T04:57:29.309Z,93.41
2023-05-11T04:58:30.740Z,93.40
2023-05-11T04:59:29.658Z,93.41
2023-05-11T05:00:29.687Z,93.41
2023-05-11T05:01:29.802Z,93.37
2023-05-11T05:02:29.919Z,93.32
2023-05-11T05:03:30.111Z,93.31
2023-05-11T05:04:30.192Z,93.33
2023-05-11T05:05:30.318Z,93.37
2023-05-11T05:06:30.992Z,93.35
2023-05-11T05:07:30.626Z,93.34
2023-05-11T05:08:30.773Z,93.27
2023-05-11T05:09:30.869Z,93.24
2023-05-11T05:10:31.005Z,93.21
2023-05-11T05:11:31.146Z,93.22
2023-05-11T05:12:31.267Z,93.20
2023-05-11T05:13:31.414Z,93.20
2023-05-11T05:14:31.508Z,93.21
2023-05-11T05:15:31.622Z,93.24
2023-05-11T05:16:32.591Z,93.29
2023-05-11T05:17:31.949Z,93.24
2023-05-11T05:18:32.006Z,93.19
2023-05-11T05:19:32.149Z,93.16
2023-05-11T05:20:32.279Z,93.11
2023-05-11T05:21:32.427Z,93.13
2023-05-11T05:22:32.593Z,93.02
2023-05-11T05:23:32.719Z,93.04
2023-05-11T05:24:32.867Z,93.03
2023-05-11T05:25:32.969Z,92.92
2023-05-11T05:26:33.091Z,92.83
2023-05-11T05:27:34.932Z,92.83
2023-05-11T05:28:33.327Z,92.89
2023-05-11T05:29:33.472Z,92.93
2023-05-11T05:30:33.636Z,93.01
2023-05-11T05:31:33.733Z,93.11
2023-05-11T05:32:33.886Z,93.16
2023-05-11T05:33:33.990Z,93.12
2023-05-11T05:34:34.150Z,92.96
2023-05-11T05:35:34.248Z,92.82
2023-05-11T05:36:34.447Z,92.81
2023-05-11T05:37:34.508Z,92.78
2023-05-11T05:38:34.652Z,92.83
2023-05-11T05:39:34.801Z,92.80
2023-05-11T05:40:34.966Z,92.85
2023-05-11T05:41:35.070Z,92.75
2023-05-11T05:42:35.191Z,92.36
2023-05-11T05:43:35.387Z,92.39
2023-05-11T05:44:35.456Z,92.41
2023-05-11T05:45:35.577Z,92.49
2023-05-11T05:46:35.816Z,92.35
2023-05-11T05:47:35.871Z,92.27
2023-05-11T05:48:35.969Z,92.26
2023-05-11T05:49:36.062Z,92.23
2023-05-11T05:50:36.257Z,92.34
2023-05-11T05:51:36.346Z,92.36
2023-05-11T05:52:36.579Z,92.49
2023-05-11T05:53:36.629Z,92.57
2023-05-11T05:54:36.796Z,92.58
2023-05-11T05:55:36.892Z,92.39
2023-05-11T05:56:37.037Z,92.07
2023-05-11T05:57:37.183Z,91.77
2023-05-11T05:58:37.376Z,91.51
2023-05-11T05:59:37.468Z,91.57
2023-05-11T06:00:37.575Z,91.78
2023-05-11T06:01:37.732Z,91.79
2023-05-11T06:02:37.950Z,91.73
2023-05-11T06:03:38.177Z,91.76
2023-05-11T06:04:38.182Z,91.81
2023-05-11T06:05:38.240Z,91.81
2023-05-11T06:06:38.453Z,91.79
2023-05-11T06:07:38.535Z,91.39
2023-05-11T06:08:38.701Z,91.32
2023-05-11T06:09:39.306Z,91.25
2023-05-11T06:10:39.087Z,91.49
2023-05-11T06:11:39.025Z,91.52
2023-05-11T06:12:39.268Z,91.56
2023-05-11T06:13:39.271Z,91.15
2023-05-11T06:14:39.389Z,91.50
2023-05-11T06:15:43.005Z,91.48
2023-05-11T06:16:39.751Z,91.40
2023-05-11T06:17:39.864Z,91.56
2023-05-11T06:18:39.921Z,91.49
2023-05-11T06:19:40.057Z,91.42
2023-05-11T06:20:40.236Z,91.08
2023-05-11T06:21:40.285Z,91.20
2023-05-11T06:22:40.444Z,91.18
2023-05-11T06:23:40.567Z,91.04
2023-05-11T06:24:40.718Z,91.00
2023-05-11T06:25:40.903Z,90.70
2023-05-11T06:26:41.429Z,90.69
2023-05-11T06:27:41.118Z,90.81
2023-05-11T06:28:41.188Z,90.73
2023-05-11T06:29:41.300Z,91.05
2023-05-11T06:30:41.431Z,90.90
2023-05-11T06:31:41.588Z,90.80
2023-05-11T06:32:41.779Z,90.84
2023-05-11T06:33:41.803Z,90.94
2023-05-11T06:34:41.949Z,90.84
2023-05-11T06:35:42.088Z,90.87
2023-05-11T06:36:42.193Z,90.57
2023-05-11T06:37:42.307Z,90.66
2023-05-11T06:38:42.485Z,90.68
2023-05-11T06:39:42.637Z,90.79
2023-05-11T06:40:42.735Z,90.95
2023-05-11T06:41:42.891Z,90.92
2023-05-11T06:42:43.013Z,90.88
2023-05-11T06:43:43.087Z,90.96
2023-05-11T06:44:43.282Z,91.25
2023-05-11T06:45:43.428Z,91.41
2023-05-11T06:46:43.482Z,91.29
2023-05-11T06:47:43.650Z,91.33
2023-05-11T06:48:43.712Z,91.21
2023-05-11T06:49:43.819Z,91.02
2023-05-11T06:50:43.980Z,90.98
2023-05-11T06:51:44.112Z,91.22
2023-05-11T06:52:44.763Z,91.26
2023-05-11T06:53:44.320Z,91.33
2023-05-11T06:54:44.441Z,91.25
2023-05-11T06:55:44.615Z,91.20
2023-05-11T06:56:44.693Z,91.29
2023-05-11T06:57:45.551Z,91.28
2023-05-11T06:58:44.921Z,90.89
2023-05-11T06:59:45.054Z,91.03
2023-05-11T07:00:45.154Z,90.78
2023-05-11T07:01:45.437Z,90.90
2023-05-11T07:02:45.421Z,91.06
2023-05-11T07:03:45.525Z,90.11
2023-05-11T07:04:45.690Z,89.95
2023-05-11T07:05:45.789Z,90.08
2023-05-11T07:06:45.893Z,90.28
2023-05-11T07:07:46.010Z,90.50
2023-05-11T07:08:46.114Z,90.68
2023-05-11T07:09:46.273Z,90.82
2023-05-11T07:10:46.390Z,90.67
2023-05-11T07:11:46.534Z,89.60
2023-05-11T07:12:46.654Z,89.73
2023-05-11T07:13:46.713Z,89.85
2023-05-11T07:14:46.813Z,89.81
2023-05-11T07:15:46.992Z,89.58
2023-05-11T07:16:47.190Z,89.18
2023-05-11T07:17:47.295Z,89.90
2023-05-11T07:18:47.365Z,89.13
2023-05-11T07:19:47.437Z,88.89
2023-05-11T07:20:47.548Z,89.16
2023-05-11T07:21:47.740Z,89.01
2023-05-11T07:22:47.793Z,89.02
2023-05-11T07:23:47.937Z,89.46
2023-05-11T07:24:48.050Z,89.89
2023-05-11T07:25:48.154Z,89.52
2023-05-11T07:26:48.354Z,88.40
2023-05-11T07:27:48.401Z,88.69
2023-05-11T07:28:48.620Z,88.85
2023-05-11T07:29:48.661Z,88.36
2023-05-11T07:30:48.988Z,87.37
2023-05-11T07:31:48.945Z,87.77
2023-05-11T07:32:49.162Z,87.97
2023-05-11T07:33:49.255Z,87.70
2023-05-11T07:34:49.281Z,87.67
2023-05-11T07:35:49.404Z,87.74
2023-05-11T07:36:49.547Z,87.34
2023-05-11T07:37:49.604Z,87.49
2023-05-11T07:38:49.781Z,87.56
2023-05-11T07:39:49.947Z,87.71
2023-05-11T07:40:50.102Z,87.19
2023-05-11T07:41:50.220Z,87.39
2023-05-11T07:42:50.303Z,86.72
2023-05-11T07:43:50.455Z,86.99
2023-05-11T07:44:50.554Z,86.05
2023-05-11T07:45:50.821Z,86.58
2023-05-11T07:46:50.896Z,86.32
2023-05-11T07:47:51.041Z,86.06
2023-05-11T07:48:57.481Z,85.80
2023-05-11T07:49:52.239Z,86.36
2023-05-11T07:50:51.367Z,86.36
2023-05-11T07:51:51.470Z,86.30
2023-05-11T07:52:51.637Z,86.56
2023-05-11T07:53:51.793Z,86.45
2023-05-11T07:54:51.860Z,86.53
2023-05-11T07:55:51.935Z,86.68
2023-05-11T07:56:52.075Z,86.05
2023-05-11T07:57:52.201Z,85.86
2023-05-11T07:58:52.365Z,86.13
2023-05-11T07:59:52.410Z,85.48
2023-05-11T08:00:52.570Z,86.04
2023-05-11T08:01:52.725Z,84.85
2023-05-11T08:02:52.924Z,85.06
2023-05-11T08:03:52.916Z,85.49
2023-05-11T08:04:53.076Z,85.84
2023-05-11T08:05:53.216Z,84.13
2023-05-11T08:06:53.306Z,84.16
2023-05-11T08:07:53.500Z,83.69
2023-05-11T08:08:53.683Z,84.32
2023-05-11T08:09:53.724Z,83.27
2023-05-11T08:10:53.767Z,83.24
2023-05-11T08:11:53.923Z,83.06
2023-05-11T08:12:54.117Z,83.12
2023-05-11T08:13:54.147Z,83.44
2023-05-11T08:14:54.348Z,82.88
2023-05-11T08:15:54.513Z,83.49
2023-05-11T08:16:54.565Z,82.84
2023-05-11T08:17:54.712Z,83.26
2023-05-11T08:18:54.871Z,83.54
2023-05-11T08:19:54.981Z,82.82
2023-05-11T08:20:55.087Z,82.91
2023-05-11T08:21:55.248Z,83.50
2023-05-11T08:22:55.327Z,83.16
2023-05-11T08:23:55.413Z,83.17
2023-05-11T08:24:55.588Z,83.35
2023-05-11T08:25:55.654Z,83.49
2023-05-11T08:26:55.760Z,82.21
2023-05-11T08:27:55.871Z,82.67
2023-05-11T08:28:55.969Z,82.12
2023-05-11T08:29:56.157Z,82.37
2023-05-11T08:30:56.242Z,82.67
2023-05-11T08:31:56.413Z,82.61
2023-05-11T08:32:59.029Z,82.86
2023-05-11T08:33:56.605Z,82.54
2023-05-11T08:34:56.809Z,82.55
2023-05-11T08:35:56.853Z,83.60
2023-05-11T08:36:56.932Z,83.18
2023-05-11T08:37:57.158Z,83.02
2023-05-11T08:38:59.254Z,82.65
2023-05-11T08:39:57.341Z,83.39
2023-05-11T08:40:57.518Z,83.99
2023-05-11T08:41:57.614Z,84.27
2023-05-11T08:42:57.743Z,84.80
2023-05-11T08:43:57.852Z,84.87
2023-05-11T08:44:57.939Z,84.80
2023-05-11T08:45:58.180Z,85.20
2023-05-11T08:47:14.311Z,85.03
2023-05-11T08:47:59.469Z,84.51
2023-05-11T08:48:58.514Z,84.62
2023-05-11T08:49:58.706Z,84.87
2023-05-11T08:50:58.801Z,84.60
2023-05-11T08:51:58.930Z,85.05
2023-05-11T08:52:59.082Z,84.86
2023-05-11T08:53:59.128Z,84.32
2023-05-11T08:54:59.286Z,83.52
2023-05-11T08:55:59.431Z,83.52
2023-05-11T08:56:59.595Z,83.79
2023-05-11T08:57:59.685Z,83.56
2023-05-11T08:58:59.787Z,84.04
2023-05-11T08:59:59.947Z,83.95
2023-05-11T09:01:00.078Z,84.10
2023-05-11T09:02:00.197Z,84.30
2023-05-11T09:03:00.324Z,84.34
2023-05-11T09:04:00.419Z,83.76
2023-05-11T09:05:00.554Z,84.18
2023-05-11T09:06:00.626Z,85.21
2023-05-11T09:07:00.763Z,83.79
2023-05-11T09:08:00.887Z,83.26
2023-05-11T09:09:01.002Z,83.55
2023-05-11T09:10:01.102Z,84.07
2023-05-11T09:11:01.240Z,84.58
2023-05-11T09:12:01.366Z,83.86
2023-05-11T09:13:01.487Z,84.56
2023-05-11T09:14:01.616Z,83.66
2023-05-11T09:15:02.256Z,83.85
2023-05-11T09:16:01.891Z,83.10
2023-05-11T09:17:02.073Z,82.50
2023-05-11T09:18:02.110Z,82.97
2023-05-11T09:19:02.316Z,82.48
2023-05-11T09:20:02.333Z,82.97
2023-05-11T09:21:02.403Z,83.45
2023-05-11T09:22:02.626Z,82.72
2023-05-11T09:23:02.686Z,82.65
2023-05-11T09:24:02.773Z,82.72
2023-05-11T09:25:03.418Z,83.00
2023-05-11T09:26:03.071Z,83.42
2023-05-11T09:27:03.173Z,83.77
2023-05-11T09:28:03.318Z,84.44
2023-05-11T09:29:04.144Z,84.59
2023-05-11T09:30:03.567Z,83.89
2023-05-11T09:31:03.807Z,81.76
2023-05-11T09:32:03.883Z,81.50
2023-05-11T09:33:04.108Z,81.85
2023-05-11T09:34:04.105Z,82.68
2023-05-11T09:35:04.267Z,81.27
2023-05-11T09:36:04.413Z,81.47
2023-05-11T09:37:04.568Z,80.89
2023-05-11T09:38:05.064Z,81.68
2023-05-11T09:39:04.804Z,81.78
2023-05-11T09:41:05.054Z,82.23
2023-05-11T09:42:05.131Z,81.90
2023-05-11T09:43:05.297Z,80.28
2023-05-11T09:44:05.345Z,79.29
2023-05-11T09:45:05.495Z,79.97
2023-05-11T09:46:05.570Z,80.17
2023-05-11T09:47:06.702Z,80.57
2023-05-11T09:48:05.840Z,79.08
2023-05-11T09:49:05.925Z,78.92
2023-05-11T09:50:06.145Z,79.15
2023-05-11T09:51:06.164Z,78.42
2023-05-11T09:52:06.305Z,78.37
2023-05-11T09:53:06.484Z,77.74
2023-05-11T09:54:06.567Z,78.21
2023-05-11T09:55:06.651Z,78.17
2023-05-11T09:56:06.753Z,78.49
2023-05-11T09:57:06.852Z,78.60
2023-05-11T09:58:06.977Z,78.90
2023-05-11T09:59:07.085Z,78.68
2023-05-11T10:00:07.176Z,78.79
2023-05-11T10:01:07.329Z,79.12
2023-05-11T10:02:07.454Z,79.48
2023-05-11T10:03:07.727Z,78.32
2023-05-11T10:04:22.090Z,78.79
2023-05-11T10:05:08.833Z,79.20
2023-05-11T10:06:07.982Z,79.18
2023-05-11T10:07:08.024Z,80.24
2023-05-11T10:08:08.239Z,79.66
2023-05-11T10:09:08.328Z,79.97
2023-05-11T10:10:08.520Z,79.73
2023-05-11T10:11:08.600Z,80.03
2023-05-11T10:12:08.695Z,79.60
2023-05-11T10:13:08.977Z,80.07
2023-05-11T10:14:08.974Z,79.41
2023-05-11T10:15:09.089Z,78.99
2023-05-11T10:16:09.363Z,78.66
2023-05-11T10:17:09.322Z,79.43
2023-05-11T10:18:09.564Z,79.42
2023-05-11T10:19:09.780Z,78.86
2023-05-11T10:20:09.627Z,78.63
2023-05-11T10:21:09.798Z,80.35
2023-05-11T10:22:09.954Z,78.49
2023-05-11T10:23:10.074Z,79.43
2023-05-11T10:24:10.178Z,79.12
2023-05-11T10:25:10.298Z,78.36
2023-05-11T10:26:10.397Z,78.11
2023-05-11T10:27:10.532Z,77.09
2023-05-11T10:28:10.705Z,76.35
2023-05-11T10:29:10.768Z,76.59
2023-05-11T10:30:10.907Z,77.24
2023-05-11T10:31:11.025Z,77.35
2023-05-11T10:32:11.184Z,76.79
2023-05-11T10:33:11.387Z,76.09
2023-05-11T10:34:11.424Z,76.00
2023-05-11T10:35:12.184Z,75.68
2023-05-11T10:36:11.663Z,75.59
2023-05-11T10:37:11.779Z,76.16
2023-05-11T10:38:11.936Z,76.04
2023-05-11T10:39:12.079Z,75.54
2023-05-11T10:40:12.238Z,75.70
2023-05-11T10:41:12.333Z,76.78
2023-05-11T10:42:12.441Z,76.59
2023-05-11T10:43:12.569Z,76.66
2023-05-11T10:44:12.680Z,76.53
2023-05-11T10:45:12.836Z,77.06
2023-05-11T10:46:12.977Z,76.83
2023-05-11T10:47:13.059Z,76.48
2023-05-11T10:48:13.145Z,76.52
2023-05-11T10:49:13.300Z,76.68
2023-05-11T10:50:13.473Z,77.10
2023-05-11T10:51:13.545Z,76.37
2023-05-11T10:52:13.660Z,76.92
2023-05-11T10:53:13.813Z,76.70
2023-05-11T10:54:13.923Z,76.58
2023-05-11T10:55:14.067Z,77.15
2023-05-11T10:56:14.187Z,77.25
2023-05-11T10:57:14.328Z,77.42
2023-05-11T10:58:14.436Z,77.86
2023-05-11T10:59:14.540Z,78.28
2023-05-11T11:00:14.744Z,78.32
2023-05-11T11:01:14.821Z,78.73
2023-05-11T11:02:14.868Z,79.24
2023-05-11T11:03:15.031Z,79.08
2023-05-11T11:04:15.199Z,79.52
2023-05-11T11:05:15.428Z,79.58
2023-05-11T11:06:15.361Z,79.44
2023-05-11T11:07:15.509Z,79.43
2023-05-11T11:08:15.647Z,79.92
2023-05-11T11:09:16.068Z,79.99
2023-05-11T11:10:15.911Z,79.64
2023-05-11T11:11:15.976Z,80.29
2023-05-11T11:12:16.136Z,80.74
2023-05-11T11:13:16.842Z,80.60
2023-05-11T11:14:16.420Z,80.99
2023-05-11T11:15:16.854Z,80.84
2023-05-11T11:16:16.853Z,81.03
2023-05-11T11:17:17.023Z,80.45
2023-05-11T11:18:16.947Z,80.61
2023-05-11T11:19:17.017Z,79.59
2023-05-11T11:20:17.126Z,79.12
2023-05-11T11:21:17.219Z,79.90
2023-05-11T11:22:17.319Z,79.79
2023-05-11T11:23:17.420Z,79.72
2023-05-11T11:24:17.552Z,78.91
2023-05-11T11:25:17.987Z,78.00
2023-05-11T11:26:17.757Z,77.90
2023-05-11T11:27:17.932Z,78.70
2023-05-11T11:28:18.154Z,77.94
2023-05-11T11:29:18.148Z,77.13
2023-05-11T11:30:18.339Z,77.03
2023-05-11T11:31:18.432Z,76.48
2023-05-11T11:32:18.486Z,75.88
2023-05-11T11:33:18.744Z,75.94
2023-05-11T11:34:18.769Z,75.98
2023-05-11T11:35:19.105Z,75.89
2023-05-11T11:36:18.958Z,75.41
2023-05-11T11:37:19.120Z,74.69
2023-05-11T11:38:19.238Z,74.94
2023-05-11T11:39:19.320Z,75.16
2023-05-11T11:40:19.450Z,74.83
2023-05-11T11:41:19.618Z,74.88
2023-05-11T11:42:19.732Z,74.77
2023-05-11T11:43:19.870Z,73.78
2023-05-11T11:44:19.979Z,74.37
2023-05-11T11:45:20.389Z,74.69
2023-05-11T11:46:20.271Z,74.61
2023-05-11T11:47:20.345Z,73.99
2023-05-11T11:48:20.491Z,75.25
2023-05-11T11:49:20.651Z,73.87
2023-05-11T11:50:20.755Z,73.22
2023-05-11T11:51:20.898Z,73.62
2023-05-11T11:52:20.972Z,73.18
2023-05-11T11:53:21.120Z,72.74
2023-05-11T11:54:21.220Z,73.98
2023-05-11T11:55:21.441Z,72.65
2023-05-11T11:56:21.524Z,72.54
2023-05-11T11:57:21.664Z,72.96
2023-05-11T11:58:21.757Z,74.31
2023-05-11T11:59:21.856Z,73.62
2023-05-11T12:00:21.962Z,72.91
2023-05-11T12:01:22.089Z,72.29
2023-05-11T12:02:22.190Z,71.44
2023-05-11T12:03:22.386Z,70.90
2023-05-11T12:04:22.474Z,71.16
2023-05-11T12:05:23.019Z,72.20
2023-05-11T12:06:25.050Z,71.71
2023-05-11T12:07:22.781Z,69.77
2023-05-11T12:08:22.897Z,69.37
2023-05-11T12:09:23.079Z,71.16
2023-05-11T12:10:23.142Z,69.41
2023-05-11T12:11:23.555Z,70.52
2023-05-11T12:12:23.345Z,70.83
2023-05-11T12:13:23.591Z,71.51
2023-05-11T12:14:23.585Z,71.03
2023-05-11T12:15:23.728Z,71.85
2023-05-11T12:16:23.949Z,71.48
2023-05-11T12:17:24.050Z,72.44
2023-05-11T12:18:24.176Z,71.14
2023-05-11T12:19:24.251Z,71.08
2023-05-11T12:20:24.413Z,71.07
2023-05-11T12:21:24.546Z,74.31
2023-05-11T12:22:24.702Z,70.98
2023-05-11T12:23:24.787Z,69.85
2023-05-11T12:24:24.927Z,71.37
2023-05-11T12:25:25.095Z,70.78
2023-05-11T12:26:25.191Z,71.18
2023-05-11T12:27:25.284Z,71.41
2023-05-11T12:28:25.477Z,69.93
2023-05-11T12:29:25.573Z,70.02
2023-05-11T12:30:25.733Z,70.61
2023-05-11T12:31:25.886Z,71.08
2023-05-11T12:32:25.986Z,71.99
2023-05-11T12:33:26.090Z,72.73
2023-05-11T12:34:26.244Z,72.20
2023-05-11T12:35:26.415Z,71.50
2023-05-11T12:36:26.491Z,71.75
2023-05-11T12:37:26.615Z,71.81
2023-05-11T12:38:26.741Z,71.72
2023-05-11T12:39:26.877Z,72.77
2023-05-11T12:40:26.952Z,72.98
2023-05-11T12:41:27.135Z,72.10
2023-05-11T12:42:27.214Z,72.16
2023-05-11T12:43:27.429Z,70.77
2023-05-11T12:44:27.513Z,70.64
2023-05-11T12:45:27.683Z,70.18
2023-05-11T12:46:27.859Z,68.95
2023-05-11T12:47:27.995Z,69.40
2023-05-11T12:48:28.064Z,69.53
2023-05-11T12:49:28.131Z,68.91
2023-05-11T12:50:28.296Z,68.26
2023-05-11T12:51:28.433Z,67.62
2023-05-11T12:52:28.600Z,69.11
2023-05-11T12:53:28.750Z,68.15
2023-05-11T12:54:28.801Z,67.95
2023-05-11T12:55:29.000Z,68.51